createdAt,value
2024-04-14T00:00:50.901Z,52.50
2024-04-14T00:03:18.333Z,52.50
2024-04-14T00:05:46.125Z,52.15
2024-04-14T00:08:13.696Z,52.95
2024-04-14T00:10:41.294Z,52.96
2024-04-14T00:13:08.550Z,52.99
2024-04-14T00:15:35.981Z,53.36
2024-04-14T00:18:03.381Z,52.94
2024-04-14T00:20:31.175Z,53.37
2024-04-14T00:22:59.588Z,53.30
2024-04-14T00:25:27.137Z,53.69
2024-04-14T00:27:54.551Z,53.60
2024-04-14T00:30:22.335Z,53.57
2024-04-14T00:32:51.767Z,53.85
2024-04-14T00:35:19.140Z,54.07
2024-04-14T00:37:46.486Z,53.74
2024-04-14T00:40:13.805Z,53.95
2024-04-14T00:42:41.184Z,54.25
2024-04-14T00:45:08.899Z,53.82
2024-04-14T00:47:36.340Z,53.93
2024-04-14T00:50:04.640Z,54.04
2024-04-14T00:52:32.532Z,54.27
2024-04-14T00:55:00.262Z,54.50
2024-04-14T00:57:27.966Z,54.61
2024-04-14T00:59:58.215Z,54.16
2024-04-14T01:02:25.464Z,54.45
2024-04-14T01:04:52.932Z,54.41
2024-04-14T01:07:21.530Z,54.68
2024-04-14T01:09:50.136Z,54.22
2024-04-14T01:12:18.094Z,54.54
2024-04-14T01:14:45.396Z,54.63
2024-04-14T01:17:12.741Z,54.75
2024-04-14T01:19:40.244Z,54.72
2024-04-14T01:22:07.573Z,55.10
2024-04-14T01:24:34.846Z,54.89
2024-04-14T01:27:02.328Z,55.18
2024-04-14T01:29:29.641Z,55.30
2024-04-14T01:31:56.955Z,55.10
2024-04-14T01:34:24.260Z,55.08
2024-04-14T01:36:51.671Z,55.47
2024-04-14T01:39:19.249Z,55.23
2024-04-14T01:41:46.855Z,55.58
2024-04-14T01:44:15.503Z,55.54
2024-04-14T01:46:42.896Z,55.68
2024-04-14T01:49:10.399Z,55.69
2024-04-14T01:51:38.401Z,55.64
2024-04-14T01:54:05.750Z,55.81
2024-04-14T01:56:33.062Z,56.04
2024-04-14T01:59:00.391Z,56.06
2024-04-14T02:01:27.826Z,55.97
2024-04-14T02:03:55.337Z,56.34
2024-04-14T02:06:22.882Z,56.42
2024-04-14T02:08:53.783Z,56.37
2024-04-14T02:11:21.335Z,56.43
2024-04-14T02:13:48.685Z,56.47
2024-04-14T02:16:16.023Z,56.38
2024-04-14T02:18:43.366Z,56.90
2024-04-14T02:21:10.687Z,56.93
2024-04-14T02:23:39.992Z,57.41
2024-04-14T02:26:07.315Z,57.13
2024-04-14T02:28:35.224Z,57.25
2024-04-14T02:31:02.533Z,57.30
2024-04-14T02:33:29.835Z,57.80
2024-04-14T02:36:01.913Z,57.67
2024-04-14T02:38:30.716Z,57.10
2024-04-14T02:41:02.819Z,57.03
2024-04-14T02:43:31.561Z,57.03
2024-04-14T02:45:59.117Z,57.19
2024-04-14T02:48:29.398Z,57.38
2024-04-14T02:50:56.880Z,57.44
2024-04-14T02:53:24.789Z,57.37
2024-04-14T02:55:52.070Z,57.54
2024-04-14T02:58:19.354Z,57.65
2024-04-14T03:00:47.835Z,57.61
2024-04-14T03:03:15.219Z,57.79
2024-04-14T03:05:42.574Z,57.92
2024-04-14T03:08:09.962Z,58.08
2024-04-14T03:10:37.813Z,58.21
2024-04-14T03:13:05.372Z,58.25
2024-04-14T03:15:32.716Z,58.61
2024-04-14T03:18:00.003Z,58.66
2024-04-14T03:20:27.439Z,58.45
2024-04-14T03:22:54.687Z,58.65
2024-04-14T03:25:21.948Z,58.79
2024-04-14T03:27:49.356Z,59.30
2024-04-14T03:30:16.684Z,59.10
2024-04-14T03:32:44.015Z,59.40
2024-04-14T03:35:11.323Z,59.26
2024-04-14T03:37:40.576Z,59.61
2024-04-14T03:40:09.500Z,59.97
2024-04-14T03:42:37.284Z,60.11
2024-04-14T03:45:07.381Z,59.76
2024-04-14T03:47:34.946Z,59.70
2024-04-14T03:50:03.672Z,59.94
2024-04-14T03:52:30.899Z,59.86
2024-04-14T03:54:58.312Z,60.03
2024-04-14T03:57:25.674Z,60.08
2024-04-14T03:59:53.096Z,60.29
2024-04-14T04:02:20.448Z,60.58
2024-04-14T04:04:47.828Z,60.57
2024-04-14T04:07:15.231Z,60.51
2024-04-14T04:09:42.574Z,60.48
2024-04-14T04:12:10.020Z,60.51
2024-04-14T04:14:37.365Z,60.65
2024-04-14T04:17:04.830Z,61.12
2024-04-14T04:19:32.264Z,61.31
2024-04-14T04:21:59.646Z,61.06
2024-04-14T04:24:29.006Z,60.96
2024-04-14T04:26:56.387Z,61.36
2024-04-14T04:29:26.346Z,61.44
2024-04-14T04:31:53.709Z,61.35
2024-04-14T04:34:21.132Z,61.59
2024-04-14T04:36:50.393Z,61.44
2024-04-14T04:39:18.191Z,61.77
2024-04-14T04:41:45.644Z,61.62
2024-04-14T04:44:13.236Z,61.49
2024-04-14T04:46:40.564Z,61.44
2024-04-14T04:49:07.915Z,61.77
2024-04-14T04:51:35.256Z,61.78
2024-04-14T04:54:02.574Z,62.05
2024-04-14T04:56:29.841Z,62.05
2024-04-14T04:58:57.146Z,62.01
2024-04-14T05:01:24.593Z,61.67
2024-04-14T05:03:52.475Z,62.28
2024-04-14T05:06:19.865Z,62.31
2024-04-14T05:08:48.905Z,62.04
2024-04-14T05:11:16.222Z,62.39
2024-04-14T05:13:43.585Z,62.21
2024-04-14T05:16:11.040Z,62.59
2024-04-14T05:18:38.608Z,62.31
2024-04-14T05:21:06.984Z,62.18
2024-04-14T05:23:34.296Z,61.81
2024-04-14T05:26:02.328Z,61.13
2024-04-14T05:28:29.627Z,60.71
2024-04-14T05:30:58.301Z,59.96
2024-04-14T05:33:25.791Z,59.42
2024-04-14T05:36:02.326Z,58.24
2024-04-14T05:38:29.730Z,57.31
2024-04-14T05:40:56.987Z,56.39
2024-04-14T05:43:24.277Z,55.80
2024-04-14T05:45:51.682Z,54.32
2024-04-14T05:48:19.295Z,53.51
2024-04-14T05:50:47.324Z,51.97
2024-04-14T05:53:14.594Z,50.33
2024-04-14T05:55:41.875Z,49.14
2024-04-14T05:58:10.179Z,47.99
2024-04-14T06:00:38.150Z,46.52
2024-04-14T06:03:05.823Z,44.66
2024-04-14T06:05:33.123Z,43.98
2024-04-14T06:08:00.505Z,42.68
2024-04-14T06:10:28.787Z,41.52
2024-04-14T06:12:56.137Z,40.03
2024-04-14T06:15:23.537Z,38.60
2024-04-14T06:17:50.924Z,37.72
2024-04-14T06:20:18.287Z,36.87
2024-04-14T06:22:45.702Z,35.97
2024-04-14T06:25:13.044Z,35.05
2024-04-14T06:27:40.363Z,34.52
2024-04-14T06:30:08.122Z,32.83
2024-04-14T06:32:37.315Z,31.60
2024-04-14T06:35:04.887Z,31.09
2024-04-14T06:37:32.252Z,30.66
2024-04-14T06:39:59.582Z,29.61
2024-04-14T06:42:26.882Z,29.08
2024-04-14T06:44:54.164Z,28.37
2024-04-14T06:47:21.495Z,27.77
2024-04-14T06:49:50.659Z,27.57
2024-04-14T06:52:18.043Z,26.55
2024-04-14T06:54:45.582Z,26.35
2024-04-14T06:57:12.828Z,25.65
2024-04-14T06:59:40.130Z,25.51
2024-04-14T07:02:08.005Z,25.18
2024-04-14T07:04:35.388Z,24.62
2024-04-14T07:07:02.948Z,24.46
2024-04-14T07:09:30.283Z,24.04
2024-04-14T07:11:57.634Z,23.56
2024-04-14T07:14:24.922Z,23.75
2024-04-14T07:16:52.140Z,23.24
2024-04-14T07:19:19.514Z,22.71
2024-04-14T07:21:46.876Z,22.69
2024-04-14T07:24:14.181Z,22.51
2024-04-14T07:26:41.535Z,22.42
2024-04-14T07:29:08.830Z,21.88
2024-04-14T07:31:36.075Z,22.04
2024-04-14T07:34:04.929Z,21.58
2024-04-14T07:36:32.630Z,21.35
2024-04-14T07:38:59.979Z,21.39
2024-04-14T07:41:27.345Z,21.36
2024-04-14T07:43:54.763Z,21.42
2024-04-14T07:46:23.756Z,20.86
2024-04-14T07:48:51.813Z,20.90
2024-04-14T07:51:19.309Z,20.97
2024-04-14T07:53:48.541Z,20.89
2024-04-14T07:56:15.857Z,21.23
2024-04-14T07:58:43.309Z,21.67
2024-04-14T08:01:10.811Z,22.87
2024-04-14T08:03:47.330Z,22.80
2024-04-14T08:06:20.929Z,23.14
2024-04-14T08:08:48.295Z,23.83
2024-04-14T08:11:16.319Z,23.81
2024-04-14T08:13:43.690Z,23.77
2024-04-14T08:16:11.086Z,24.69
2024-04-14T08:18:38.450Z,24.30
2024-04-14T08:21:05.868Z,25.14
2024-04-14T08:23:34.152Z,25.32
2024-04-14T08:26:04.391Z,25.36
2024-04-14T08:28:31.473Z,26.20
2024-04-14T08:30:58.818Z,25.85
2024-04-14T08:33:26.156Z,25.99
2024-04-14T08:35:53.771Z,26.29
2024-04-14T08:38:21.091Z,25.97
2024-04-14T08:40:55.354Z,26.22
2024-04-14T08:43:23.698Z,26.33
2024-04-14T08:45:52.975Z,26.66
2024-04-14T08:48:21.548Z,26.70
2024-04-14T08:50:49.326Z,26.76
2024-04-14T08:53:19.192Z,26.89
2024-04-14T08:55:47.641Z,26.92
2024-04-14T08:58:17.035Z,26.62
2024-04-14T09:00:48.454Z,27.05
2024-04-14T09:03:15.844Z,26.63
2024-04-14T09:05:46.049Z,26.93
2024-04-14T09:08:13.542Z,26.62
2024-04-14T09:10:40.825Z,26.71
2024-04-14T09:13:10.017Z,26.83
2024-04-14T09:15:43.951Z,26.95
2024-04-14T09:18:11.242Z,26.61
2024-04-14T09:20:38.525Z,26.81
2024-04-14T09:23:05.908Z,26.80
2024-04-14T09:25:34.763Z,26.57
2024-04-14T09:28:09.054Z,26.62
2024-04-14T09:30:36.387Z,26.69
2024-04-14T09:33:04.776Z,26.92
2024-04-14T09:35:32.352Z,26.52
2024-04-14T09:38:01.945Z,26.38
2024-04-14T09:40:33.252Z,26.67
2024-04-14T09:43:01.387Z,26.67
2024-04-14T09:45:30.159Z,26.85
2024-04-14T09:47:58.296Z,26.52
2024-04-14T09:50:26.383Z,26.86
2024-04-14T09:52:54.608Z,26.74
2024-04-14T09:55:22.170Z,27.25
2024-04-14T09:57:52.039Z,27.06
2024-04-14T10:00:23.476Z,27.03
2024-04-14T10:03:03.507Z,26.73
2024-04-14T10:05:32.929Z,27.10
2024-04-14T10:08:00.325Z,26.94
2024-04-14T10:10:29.099Z,26.65
2024-04-14T10:12:58.314Z,27.03
2024-04-14T10:15:26.510Z,27.04
2024-04-14T10:18:12.769Z,27.04
2024-04-14T10:20:48.645Z,26.57
2024-04-14T10:23:21.082Z,26.92
2024-04-14T10:25:49.975Z,27.14
2024-04-14T10:28:21.218Z,26.72
2024-04-14T10:30:51.887Z,26.66
2024-04-14T10:33:25.781Z,26.93
2024-04-14T10:36:02.919Z,27.29
2024-04-14T10:38:33.335Z,27.40
2024-04-14T10:41:01.840Z,27.45
2024-04-14T10:43:29.331Z,27.88
2024-04-14T10:46:04.724Z,28.17
2024-04-14T10:48:33.802Z,28.35
2024-04-14T10:51:04.541Z,28.47
2024-04-14T10:53:31.994Z,28.05
2024-04-14T10:55:59.249Z,28.11
2024-04-14T10:58:30.669Z,28.46
2024-04-14T11:00:58.566Z,28.30
2024-04-14T11:03:26.856Z,28.55
2024-04-14T11:05:55.596Z,28.62
2024-04-14T11:08:25.659Z,28.68
2024-04-14T11:10:54.257Z,28.83
2024-04-14T11:13:25.821Z,28.87
2024-04-14T11:15:58.742Z,29.10
2024-04-14T11:18:32.055Z,29.30
2024-04-14T11:20:59.688Z,29.04
2024-04-14T11:23:29.428Z,29.26
2024-04-14T11:25:56.929Z,28.59
2024-04-14T11:28:24.291Z,28.99
2024-04-14T11:30:51.985Z,28.79
2024-04-14T11:33:24.146Z,29.28
2024-04-14T11:36:01.195Z,29.17
2024-04-14T11:38:28.969Z,29.62
2024-04-14T11:40:56.445Z,29.75
2024-04-14T11:43:23.888Z,29.97
2024-04-14T11:45:52.105Z,30.15
2024-04-14T11:48:21.701Z,29.95
2024-04-14T11:50:49.069Z,30.30
2024-04-14T11:53:16.350Z,30.48
2024-04-14T11:55:43.637Z,30.82
2024-04-14T11:58:13.612Z,30.97
2024-04-14T12:00:41.470Z,30.84
2024-04-14T12:03:09.237Z,30.60
2024-04-14T12:05:36.534Z,31.15
2024-04-14T12:08:03.886Z,31.10
2024-04-14T12:10:32.019Z,31.13
2024-04-14T12:12:59.427Z,31.51
2024-04-14T12:15:26.832Z,31.55
2024-04-14T12:17:57.770Z,31.39
2024-04-14T12:20:25.231Z,31.64
2024-04-14T12:22:52.472Z,31.45
2024-04-14T12:25:19.777Z,31.75
2024-04-14T12:27:47.234Z,31.62
2024-04-14T12:30:14.598Z,31.57
2024-04-14T12:32:43.158Z,31.60
2024-04-14T12:35:10.522Z,31.60
2024-04-14T12:37:37.846Z,31.99
2024-04-14T12:40:05.561Z,32.15
2024-04-14T12:42:32.947Z,32.16
2024-04-14T12:45:00.245Z,32.66
2024-04-14T12:47:27.976Z,32.54
2024-04-14T12:49:57.017Z,32.90
2024-04-14T12:52:24.400Z,33.47
2024-04-14T12:54:52.472Z,33.69
2024-04-14T12:57:20.973Z,34.12
2024-04-14T12:59:49.208Z,34.44
2024-04-14T13:02:16.579Z,34.52
2024-04-14T13:04:46.348Z,34.53
2024-04-14T13:07:13.892Z,34.78
2024-04-14T13:09:41.194Z,34.76
2024-04-14T13:12:11.043Z,34.91
2024-04-14T13:14:38.620Z,35.12
2024-04-14T13:17:06.670Z,35.19
2024-04-14T13:19:36.137Z,35.49
2024-04-14T13:22:03.707Z,35.25
2024-04-14T13:24:31.168Z,34.98
2024-04-14T13:26:58.397Z,34.93
2024-04-14T13:29:25.803Z,35.18
2024-04-14T13:31:53.093Z,34.96
2024-04-14T13:34:20.655Z,34.70
2024-04-14T13:36:47.928Z,35.11
2024-04-14T13:39:15.200Z,34.88
2024-04-14T13:41:42.462Z,34.23
2024-04-14T13:44:09.727Z,34.49
2024-04-14T13:46:37.079Z,34.64
2024-04-14T13:49:04.510Z,34.33
2024-04-14T13:51:31.837Z,34.24
2024-04-14T13:53:59.169Z,33.28
2024-04-14T13:56:26.473Z,32.98
2024-04-14T13:58:54.077Z,32.96
2024-04-14T14:01:21.400Z,32.81
2024-04-14T14:03:49.634Z,32.75
2024-04-14T14:06:16.873Z,31.91
2024-04-14T14:08:44.209Z,32.23
2024-04-14T14:11:11.508Z,31.97
2024-04-14T14:13:38.775Z,31.57
2024-04-14T14:16:06.726Z,31.94
2024-04-14T14:18:34.025Z,31.87
2024-04-14T14:21:01.388Z,32.19
2024-04-14T14:23:28.617Z,31.88
2024-04-14T14:25:55.905Z,31.72
2024-04-14T14:28:23.235Z,31.81
2024-04-14T14:30:50.521Z,32.22
2024-04-14T14:33:36.455Z,31.93
2024-04-14T14:36:22.416Z,32.08
2024-04-14T14:38:49.696Z,32.22
2024-04-14T14:41:16.995Z,32.47
2024-04-14T14:43:44.271Z,32.33
2024-04-14T14:46:11.603Z,32.30
2024-04-14T14:48:39.149Z,32.80
2024-04-14T14:51:06.670Z,32.43
2024-04-14T14:53:33.907Z,32.27
2024-04-14T14:56:01.185Z,31.80
2024-04-14T14:58:28.460Z,31.87
2024-04-14T15:00:57.031Z,31.43
2024-04-14T15:03:25.393Z,31.39
2024-04-14T15:05:52.682Z,31.63
2024-04-14T15:08:20.281Z,31.74
2024-04-14T15:10:49.077Z,31.60
2024-04-14T15:13:16.616Z,31.38
2024-04-14T15:15:55.729Z,31.82
2024-04-14T15:18:23.906Z,32.18
2024-04-14T15:20:51.218Z,31.95
2024-04-14T15:23:18.529Z,32.41
2024-04-14T15:25:46.067Z,32.08
2024-04-14T15:28:19.345Z,32.17
2024-04-14T15:30:53.453Z,31.96
2024-04-14T15:33:20.778Z,32.24
2024-04-14T15:35:48.248Z,32.49
2024-04-14T15:38:16.928Z,32.19
2024-04-14T15:40:48.295Z,32.03
2024-04-14T15:43:15.772Z,31.69
2024-04-14T15:45:43.175Z,33.07
2024-04-14T15:48:10.539Z,33.10
2024-04-14T15:50:37.965Z,33.60
2024-04-14T15:53:08.096Z,33.45
2024-04-14T15:55:41.447Z,33.41
2024-04-14T15:58:08.714Z,33.56
2024-04-14T16:00:36.165Z,33.73
2024-04-14T16:03:03.699Z,33.76
2024-04-14T16:05:31.871Z,33.77
2024-04-14T16:07:59.174Z,33.87
2024-04-14T16:10:26.432Z,33.42
2024-04-14T16:12:53.829Z,33.80
2024-04-14T16:15:21.136Z,34.01
2024-04-14T16:17:48.522Z,34.11
2024-04-14T16:20:16.950Z,33.60
2024-04-14T16:22:44.216Z,33.98
2024-04-14T16:25:13.852Z,33.91
2024-04-14T16:27:42.063Z,34.24
2024-04-14T16:30:09.736Z,34.29
2024-04-14T16:32:37.063Z,34.39
2024-04-14T16:35:04.579Z,34.13
2024-04-14T16:37:31.920Z,34.02
2024-04-14T16:39:59.351Z,34.04
2024-04-14T16:42:26.697Z,34.12
2024-04-14T16:44:53.975Z,33.95
2024-04-14T16:47:21.482Z,34.08
2024-04-14T16:49:48.875Z,34.06
2024-04-14T16:52:16.244Z,34.35
2024-04-14T16:54:43.650Z,34.43
2024-04-14T16:57:10.970Z,33.95
2024-04-14T16:59:38.829Z,34.08
2024-04-14T17:02:06.242Z,34.41
2024-04-14T17:04:33.689Z,34.39
2024-04-14T17:07:02.417Z,34.00
2024-04-14T17:09:29.801Z,33.99
2024-04-14T17:11:57.114Z,33.99
2024-04-14T17:14:24.471Z,34.29
2024-04-14T17:16:51.760Z,34.18
2024-04-14T17:19:19.090Z,34.47
2024-04-14T17:21:46.437Z,34.48
2024-04-14T17:24:13.690Z,34.14
2024-04-14T17:26:40.981Z,34.45
2024-04-14T17:29:08.228Z,34.19
2024-04-14T17:31:36.244Z,34.42
2024-04-14T17:34:04.861Z,34.19
2024-04-14T17:36:32.205Z,34.44
2024-04-14T17:38:59.567Z,34.39
2024-04-14T17:41:26.867Z,34.38
2024-04-14T17:43:54.142Z,34.54
2024-04-14T17:46:21.397Z,34.62
2024-04-14T17:48:48.682Z,34.52
2024-04-14T17:51:15.942Z,34.73
2024-04-14T17:53:46.103Z,34.86
2024-04-14T17:56:13.378Z,34.92
2024-04-14T17:58:40.603Z,34.55
2024-04-14T18:01:08.008Z,34.96
2024-04-14T18:03:35.411Z,35.15
2024-04-14T18:06:02.716Z,34.99
2024-04-14T18:08:29.996Z,35.08
2024-04-14T18:10:57.218Z,35.09
2024-04-14T18:13:24.584Z,35.06
2024-04-14T18:15:51.951Z,35.19
2024-04-14T18:18:20.691Z,35.32
2024-04-14T18:20:49.263Z,35.49
2024-04-14T18:23:16.544Z,35.57
2024-04-14T18:25:43.860Z,35.46
2024-04-14T18:28:11.205Z,35.34
2024-04-14T18:30:41.539Z,35.61
2024-04-14T18:33:10.446Z,35.66
2024-04-14T18:35:37.769Z,35.94
2024-04-14T18:38:05.151Z,36.21
2024-04-14T18:40:32.435Z,36.22
2024-04-14T18:42:59.855Z,36.08
2024-04-14T18:45:27.173Z,36.42
2024-04-14T18:47:54.529Z,36.72
2024-04-14T18:50:21.928Z,37.12
2024-04-14T18:52:49.187Z,37.39
2024-04-14T18:55:16.484Z,37.69
2024-04-14T18:57:43.943Z,37.67
2024-04-14T19:00:12.024Z,38.00
2024-04-14T19:02:39.490Z,38.48
2024-04-14T19:05:07.222Z,38.60
2024-04-14T19:07:34.504Z,38.97
2024-04-14T19:10:01.902Z,39.07
2024-04-14T19:12:29.178Z,38.90
2024-04-14T19:14:56.461Z,39.48
2024-04-14T19:17:26.796Z,39.08
2024-04-14T19:19:54.244Z,39.87
2024-04-14T19:22:21.545Z,39.81
2024-04-14T19:24:48.836Z,39.92
2024-04-14T19:27:16.096Z,39.96
2024-04-14T19:29:43.365Z,39.93
2024-04-14T19:32:10.704Z,39.96
2024-04-14T19:34:38.073Z,40.05
2024-04-14T19:37:05.764Z,40.21
2024-04-14T19:39:33.031Z,40.63
2024-04-14T19:42:00.447Z,40.30
2024-04-14T19:44:27.734Z,40.73
2024-04-14T19:46:55.100Z,41.02
2024-04-14T19:49:22.507Z,40.94
2024-04-14T19:51:49.785Z,40.98
2024-04-14T19:54:17.131Z,41.36
2024-04-14T19:56:44.354Z,41.23
2024-04-14T19:59:12.638Z,41.53
2024-04-14T20:01:40.044Z,41.64
2024-04-14T20:04:07.681Z,41.03
2024-04-14T20:06:35.027Z,41.25
2024-04-14T20:09:02.370Z,41.23
2024-04-14T20:11:30.347Z,41.29
2024-04-14T20:13:57.653Z,41.65
2024-04-14T20:16:24.956Z,41.50
2024-04-14T20:18:52.294Z,41.80
2024-04-14T20:21:19.632Z,41.69
2024-04-14T20:23:48.847Z,41.79
2024-04-14T20:26:16.187Z,42.29
2024-04-14T20:28:48.169Z,42.24
2024-04-14T20:31:15.666Z,42.27
2024-04-14T20:33:43.317Z,42.35
2024-04-14T20:36:12.789Z,42.45
2024-04-14T20:38:40.108Z,42.60
2024-04-14T20:41:07.663Z,42.44
2024-04-14T20:43:35.009Z,42.67
2024-04-14T20:46:02.468Z,42.40
2024-04-14T20:48:29.937Z,42.50
2024-04-14T20:50:57.468Z,42.29
2024-04-14T20:53:29.896Z,42.44
2024-04-14T20:55:59.613Z,42.23
2024-04-14T20:58:26.875Z,42.77
2024-04-14T21:01:07.688Z,41.73
2024-04-14T21:03:43.732Z,40.99
2024-04-14T21:06:11.475Z,41.07
2024-04-14T21:08:52.356Z,40.82
2024-04-14T21:11:19.777Z,40.00
2024-04-14T21:13:47.223Z,40.09
2024-04-14T21:16:15.144Z,40.71
2024-04-14T21:18:43.336Z,40.78
2024-04-14T21:21:11.227Z,40.31
2024-04-14T21:23:41.273Z,38.69
2024-04-14T21:26:09.622Z,37.30
2024-04-14T21:28:37.695Z,35.99
2024-04-14T21:31:05.886Z,34.72
2024-04-14T21:33:33.734Z,33.58
2024-04-14T21:36:01.232Z,33.58
2024-04-14T21:38:28.644Z,33.25
2024-04-14T21:40:56.780Z,33.34
2024-04-14T21:43:24.025Z,33.70
2024-04-14T21:46:01.541Z,33.29
2024-04-14T21:48:30.045Z,33.15
2024-04-14T21:51:06.846Z,33.39
2024-04-14T21:53:34.489Z,33.98
2024-04-14T21:56:02.447Z,34.59
2024-04-14T21:58:34.130Z,34.83
2024-04-14T22:01:05.673Z,34.79
2024-04-14T22:03:33.080Z,35.86
2024-04-14T22:06:00.705Z,35.70
2024-04-14T22:08:29.402Z,36.16
2024-04-14T22:10:59.901Z,36.79
2024-04-14T22:13:32.026Z,37.30
2024-04-14T22:15:59.676Z,37.48
2024-04-14T22:18:27.080Z,37.27
2024-04-14T22:20:54.628Z,37.19
2024-04-14T22:23:21.942Z,37.17
2024-04-14T22:25:49.364Z,36.43
2024-04-14T22:28:17.022Z,36.87
2024-04-14T22:30:44.389Z,36.63
2024-04-14T22:33:13.123Z,36.33
2024-04-14T22:35:40.617Z,36.40
2024-04-14T22:38:07.870Z,36.48
2024-04-14T22:40:35.665Z,36.87
2024-04-14T22:43:03.038Z,37.48
2024-04-14T22:45:30.429Z,37.62
2024-04-14T22:47:57.833Z,38.14
2024-04-14T22:50:25.155Z,38.08
2024-04-14T22:52:52.524Z,39.08
2024-04-14T22:55:19.992Z,39.23
2024-04-14T22:57:47.389Z,39.48
2024-04-14T23:00:15.122Z,39.95
2024-04-14T23:02:42.471Z,39.83
2024-04-14T23:05:09.927Z,40.35
2024-04-14T23:07:37.266Z,40.51
2024-04-14T23:10:04.702Z,40.19
2024-04-14T23:12:32.117Z,40.09
2024-04-14T23:14:59.549Z,40.06
2024-04-14T23:17:26.914Z,40.17
2024-04-14T23:19:57.326Z,40.30
2024-04-14T23:22:24.653Z,40.07
2024-04-14T23:24:52.018Z,40.40
2024-04-14T23:27:19.407Z,40.63
2024-04-14T23:29:47.001Z,40.61
2024-04-14T23:32:14.442Z,40.52
2024-04-14T23:34:41.903Z,40.64
2024-04-14T23:37:09.344Z,41.07
2024-04-14T23:39:36.751Z,41.46
2024-04-14T23:42:04.139Z,42.09
2024-04-14T23:44:31.561Z,42.08
2024-04-14T23:46:58.909Z,42.00
2024-04-14T23:49:26.227Z,42.27
2024-04-14T23:51:53.700Z,42.86
2024-04-14T23:54:21.303Z,43.66
2024-04-14T23:56:49.650Z,44.29
2024-04-14T23:59:17.079Z,45.04
